23:55
Airports
Links
Donate
Help keep this website running!
PayPal
Bitcoin
METAR
VDSR 232330Z 00000KT 9000 SCT017 25/25 Q1006
Current Weather Conditions at VDSR
VFR 23:30:00 23-01-18
Altimeter:29.70 hg
Temp:25.0°c 77°f
Dew point:25.0°c 77°f
Wind:0 knots, 0 mph, 0 m/s,
Variable direction
Visibility:5.59 statute miles
1700(SCT) Scattered
Past METAR reports
VFR 23:00:00 23-01-18
Altimeter:29.70 hg
Temp:25.0°c 77°f
Dew point:25.0°c 77°f
Wind:0 knots, 0 mph, 0 m/s,
Variable direction
Visibility:5.59 statute miles
1700(SCT) Scattered
VDSR 232300Z 00000KT 9000 SCT017 25/25 Q1006
VFR 19:30:00 23-01-18
Altimeter:29.70 hg
Temp:25.0°c 77°f
Dew point:25.0°c 77°f
Wind:0 knots, 0 mph, 0 m/s,
Variable direction
Visibility:5.59 statute miles
(CLR) Clear
VDSR 231930Z 00000KT 9000 NSC 25/25 Q1006
VFR 19:00:00 23-01-18
Altimeter:29.70 hg
Temp:25.0°c 77°f
Dew point:25.0°c 77°f
Wind:0 knots, 0 mph, 0 m/s,
Variable direction
Visibility:5.59 statute miles
(CLR) Clear
VDSR 231900Z 00000KT 9000 NSC 25/25 Q1006
VFR 18:30:00 23-01-18
Altimeter:29.70 hg
Temp:25.0°c 77°f
Dew point:25.0°c 77°f
Wind:0 knots, 0 mph, 0 m/s,
Variable direction
Visibility:5.59 statute miles
(CLR) Clear
VDSR 231830Z 00000KT 9000 NSC 25/25 Q1006
VFR 18:00:00 23-01-18
Altimeter:29.73 hg
Temp:25.0°c 77°f
Dew point:25.0°c 77°f
Wind:0 knots, 0 mph, 0 m/s,
Variable direction
Visibility:5.59 statute miles
(CLR) Clear
VDSR 231800Z 00000KT 9000 NSC 25/25 Q1007
TAF
TAF VDSR 232300Z 2400/2418 23005KT 9999 SCT017 SCT040
Forecast at VDSR
00:00 24-01-18 to 18:00 24-01-18
Wind:5 Knots from 230°
Visibility:6.21 statute miles
1700SCT Scattered
4000SCT Scattered